Time,TemperatureF,DewpointF,PressureIn,WindDirection,WindDirectionDegrees,WindSpeedMPH,WindSpeedGustMPH,Humidity,HourlyPrecipIn,Conditions,Clouds,dailyrainin,SoftwareType,DateUTC
2013-01-18 00:10:00,34.0,-99.9,-100.00,North,353,0.0,1.0,-999,-99.99,,,-99.99,,2013-01-18 08:10:00,
2013-01-18 00:33:00,33.0,-99.9,-100.00,SSW,193,0.0,2.0,-999,-99.99,,,-99.99,,2013-01-18 08:33:00,
2013-01-18 00:43:00,33.0,-99.9,-100.00,SSW,193,0.0,2.0,-999,-99.99,,,-99.99,,2013-01-18 08:43:00,
2013-01-18 00:53:00,34.0,-99.9,-100.00,North,353,0.0,1.0,-999,-99.99,,,-99.99,,2013-01-18 08:53:00,
2013-01-18 01:03:00,34.0,-99.9,-100.00,North,353,0.0,1.0,-999,-99.99,,,-99.99,,2013-01-18 09:03:00,
2013-01-18 01:43:00,30.0,-99.9,-100.00,West,268,2.0,2.0,-999,-99.99,,,-99.99,,2013-01-18 09:43:00,
2013-01-18 01:53:00,30.0,-99.9,-100.00,West,268,2.0,2.0,-999,-99.99,,,-99.99,,2013-01-18 09:53:00,
2013-01-18 02:33:00,32.0,-99.9,-100.00,SSW,203,1.0,1.0,-999,-99.99,,,-99.99,,2013-01-18 10:33:00,
2013-01-18 02:43:00,32.0,-99.9,-100.00,SSW,203,1.0,1.0,-999,-99.99,,,-99.99,,2013-01-18 10:43:00,
2013-01-18 02:53:00,32.0,-99.9,-100.00,SSW,203,1.0,1.0,-999,-99.99,,,-99.99,,2013-01-18 10:53:00,
2013-01-18 03:43:00,30.0,-99.9,-100.00,WSW,238,1.0,3.0,-999,-99.99,,,-99.99,,2013-01-18 11:43:00,
2013-01-18 03:53:00,30.0,-99.9,-100.00,WSW,238,1.0,3.0,-999,-99.99,,,-99.99,,2013-01-18 11:53:00,
2013-01-18 04:10:00,32.0,-99.9,-100.00,SSE,148,1.0,2.0,-999,-99.99,,,-99.99,,2013-01-18 12:10:00,
2013-01-18 04:43:00,30.0,-99.9,-100.00,West,270,1.0,2.0,-999,-99.99,,,-99.99,,2013-01-18 12:43:00,
2013-01-18 04:53:00,32.0,-99.9,-100.00,SSE,148,1.0,2.0,-999,-99.99,,,-99.99,,2013-01-18 12:53:00,
2013-01-18 05:03:00,32.0,-99.9,-100.00,SSE,148,1.0,2.0,-999,-99.99,,,-99.99,,2013-01-18 13:03:00,
2013-01-18 05:23:00,30.0,-99.9,-100.00,WSW,243,0.0,2.0,-999,-99.99,,,-99.99,,2013-01-18 13:23:00,
2013-01-18 05:34:00,31.0,-99.9,-100.00,NE,39,3.0,4.0,-999,-99.99,,,-99.99,,2013-01-18 13:34:00,
2013-01-18 05:43:00,31.0,-99.9,-100.00,NE,39,3.0,4.0,-999,-99.99,,,-99.99,,2013-01-18 13:43:00,
2013-01-18 05:53:00,31.0,-99.9,-100.00,NE,39,3.0,4.0,-999,-99.99,,,-99.99,,2013-01-18 13:53:00,
2013-01-18 06:23:00,31.0,-99.9,-100.00,SW,220,1.0,3.0,-999,-99.99,,,-99.99,,2013-01-18 14:23:00,
2013-01-18 06:34:00,29.0,-99.9,-100.00,SW,226,3.0,5.0,-999,-99.99,,,-99.99,,2013-01-18 14:34:00,
2013-01-18 06:43:00,29.0,-99.9,-100.00,SW,226,3.0,5.0,-999,-99.99,,,-99.99,,2013-01-18 14:43:00,
2013-01-18 06:53:00,29.0,-99.9,-100.00,SW,226,3.0,5.0,-999,-99.99,,,-99.99,,2013-01-18 14:53:00,
2013-01-18 07:23:00,29.0,-99.9,-100.00,West,265,3.0,5.0,-999,-99.99,,,-99.99,,2013-01-18 15:23:00,
2013-01-18 07:34:00,30.0,-99.9,-100.00,WSW,246,2.0,3.0,-999,-99.99,,,-99.99,,2013-01-18 15:34:00,
2013-01-18 07:44:00,30.0,-99.9,-100.00,WSW,246,2.0,3.0,-999,-99.99,,,-99.99,,2013-01-18 15:44:00,
2013-01-18 07:54:00,30.0,-99.9,-100.00,WSW,246,2.0,3.0,-999,-99.99,,,-99.99,,2013-01-18 15:54:00,
2013-01-18 08:23:00,29.0,-99.9,-100.00,WSW,245,2.0,5.0,-999,-99.99,,,-99.99,,2013-01-18 16:23:00,
2013-01-18 08:33:00,29.0,-99.9,-100.00,WNW,283,4.0,5.0,-999,-99.99,,,-99.99,,2013-01-18 16:33:00,
2013-01-18 08:43:00,29.0,-99.9,-100.00,WNW,283,4.0,5.0,-999,-99.99,,,-99.99,,2013-01-18 16:43:00,
2013-01-18 08:53:00,29.0,-99.9,-100.00,WNW,283,4.0,5.0,-999,-99.99,,,-99.99,,2013-01-18 16:53:00,
2013-01-18 09:23:00,32.0,-99.9,-100.00,West,275,0.0,2.0,-999,-99.99,,,-99.99,,2013-01-18 17:23:00,
2013-01-18 09:34:00,30.0,-99.9,-100.00,West,279,1.0,3.0,-999,-99.99,,,-99.99,,2013-01-18 17:34:00,
2013-01-18 09:43:00,30.0,-99.9,-100.00,West,279,1.0,3.0,-999,-99.99,,,-99.99,,2013-01-18 17:43:00,
2013-01-18 09:53:00,30.0,-99.9,-100.00,West,279,1.0,3.0,-999,-99.99,,,-99.99,,2013-01-18 17:53:00,
2013-01-18 10:04:00,30.0,-99.9,-100.00,NW,306,1.0,4.0,-999,-99.99,,,-99.99,,2013-01-18 18:04:00,
2013-01-18 10:13:00,30.0,-99.9,-100.00,NW,306,1.0,4.0,-999,-99.99,,,-99.99,,2013-01-18 18:13:00,
2013-01-18 10:24:00,30.0,-99.9,-100.00,NW,306,1.0,4.0,-999,-99.99,,,-99.99,,2013-01-18 18:24:00,
2013-01-18 10:34:00,29.0,-99.9,-100.00,NNW,335,0.0,2.0,-999,-99.99,,,-99.99,,2013-01-18 18:34:00,
2013-01-18 10:44:00,29.0,-99.9,-100.00,NNW,335,0.0,2.0,-999,-99.99,,,-99.99,,2013-01-18 18:44:00,
2013-01-18 10:53:00,29.0,-99.9,-100.00,NNW,335,0.0,2.0,-999,-99.99,,,-99.99,,2013-01-18 18:53:00,
2013-01-18 11:10:00,31.0,-99.9,-100.00,WNW,295,3.0,3.0,-999,-99.99,,,-99.99,,2013-01-18 19:10:00,
2013-01-18 11:33:00,32.0,-99.9,-100.00,NW,304,0.0,3.0,-999,-99.99,,,-99.99,,2013-01-18 19:33:00,
2013-01-18 11:43:00,32.0,-99.9,-100.00,NW,304,0.0,3.0,-999,-99.99,,,-99.99,,2013-01-18 19:43:00,
2013-01-18 11:53:00,31.0,-99.9,-100.00,WNW,295,3.0,3.0,-999,-99.99,,,-99.99,,2013-01-18 19:53:00,
2013-01-18 12:03:00,31.0,-99.9,-100.00,WNW,295,3.0,3.0,-999,-99.99,,,-99.99,,2013-01-18 20:03:00,
2013-01-18 12:43:00,33.0,-99.9,-100.00,NW,308,4.0,5.0,-999,-99.99,,,-99.99,,2013-01-18 20:43:00,
2013-01-18 12:53:00,32.0,-99.9,-100.00,NW,323,3.0,4.0,-999,-99.99,,,-99.99,,2013-01-18 20:53:00,
2013-01-18 13:03:00,32.0,-99.9,-100.00,NW,323,3.0,4.0,-999,-99.99,,,-99.99,,2013-01-18 21:03:00,
2013-01-18 13:33:00,32.0,-99.9,-100.00,WNW,287,2.0,2.0,-999,-99.99,,,-99.99,,2013-01-18 21:33:00,
2013-01-18 13:43:00,32.0,-99.9,-100.00,WNW,287,2.0,2.0,-999,-99.99,,,-99.99,,2013-01-18 21:43:00,
2013-01-18 13:53:00,32.0,-99.9,-100.00,WNW,287,2.0,2.0,-999,-99.99,,,-99.99,,2013-01-18 21:53:00,
2013-01-18 14:43:00,33.0,-99.9,-100.00,ESE,117,1.0,2.0,-999,-99.99,,,-99.99,,2013-01-18 22:43:00,
2013-01-18 14:53:00,33.0,-99.9,-100.00,ESE,117,1.0,2.0,-999,-99.99,,,-99.99,,2013-01-18 22:53:00,
2013-01-18 15:23:00,35.0,-99.9,-100.00,NE,56,0.0,2.0,-999,-99.99,,,-99.99,,2013-01-18 23:23:00,
2013-01-18 15:33:00,36.0,-99.9,-100.00,ENE,57,0.0,2.0,-999,-99.99,,,-99.99,,2013-01-18 23:33:00,
2013-01-18 15:43:00,36.0,-99.9,-100.00,ENE,57,0.0,2.0,-999,-99.99,,,-99.99,,2013-01-18 23:43:00,
2013-01-18 15:53:00,36.0,-99.9,-100.00,ENE,57,0.0,2.0,-999,-99.99,,,-99.99,,2013-01-18 23:53:00,
2013-01-18 16:53:00,36.0,-99.9,-100.00,ENE,73,0.0,2.0,-999,-99.99,,,-99.99,,2013-01-19 00:53:00,
2013-01-18 17:33:00,36.0,-99.9,-100.00,SE,140,0.0,0.0,-999,-99.99,,,-99.99,,2013-01-19 01:33:00,
2013-01-18 17:43:00,36.0,-99.9,-100.00,SE,140,0.0,0.0,-999,-99.99,,,-99.99,,2013-01-19 01:43:00,
2013-01-18 17:53:00,36.0,-99.9,-100.00,SE,133,0.0,1.0,-999,-99.99,,,-99.99,,2013-01-19 01:53:00,
2013-01-18 18:03:00,36.0,-99.9,-100.00,SE,133,0.0,1.0,-999,-99.99,,,-99.99,,2013-01-19 02:03:00,
2013-01-18 18:20:00,33.0,-99.9,-100.00,SSE,148,1.0,1.0,-999,-99.99,,,-99.99,,2013-01-19 02:20:00,
2013-01-18 18:33:00,33.0,-99.9,-100.00,SSE,154,0.0,2.0,-999,-99.99,,,-99.99,,2013-01-19 02:33:00,
2013-01-18 18:43:00,33.0,-99.9,-100.00,SSE,154,0.0,2.0,-999,-99.99,,,-99.99,,2013-01-19 02:43:00,
2013-01-18 18:53:00,33.0,-99.9,-100.00,SSE,154,0.0,2.0,-999,-99.99,,,-99.99,,2013-01-19 02:53:00,
2013-01-18 19:00:00,36.0,-99.9,-100.00,SSE,148,1.0,2.0,-999,-99.99,,,-99.99,,2013-01-19 03:00:00,
2013-01-18 19:03:00,33.0,-99.9,-100.00,SSE,148,1.0,1.0,-999,-99.99,,,-99.99,,2013-01-19 03:03:00,
2013-01-18 19:12:00,33.0,-99.9,-100.00,SSE,148,1.0,1.0,-999,-99.99,,,-99.99,,2013-01-19 03:12:00,
2013-01-18 19:44:00,34.0,-99.9,-100.00,SSE,159,0.0,1.0,-999,-99.99,,,-99.99,,2013-01-19 03:44:00,
2013-01-18 19:53:00,36.0,-99.9,-100.00,SSE,148,1.0,2.0,-999,-99.99,,,-99.99,,2013-01-19 03:53:00,
2013-01-18 20:22:00,32.0,-99.9,-100.00,SSW,209,1.0,1.0,-999,-99.99,,,-99.99,,2013-01-19 04:22:00,
2013-01-18 20:33:00,32.0,-99.9,-100.00,SE,131,1.0,2.0,-999,-99.99,,,-99.99,,2013-01-19 04:33:00,
2013-01-18 20:43:00,32.0,-99.9,-100.00,SE,131,1.0,2.0,-999,-99.99,,,-99.99,,2013-01-19 04:43:00,
2013-01-18 20:53:00,32.0,-99.9,-100.00,SE,131,1.0,2.0,-999,-99.99,,,-99.99,,2013-01-19 04:53:00,
2013-01-18 21:20:00,32.0,-99.9,-100.00,South,182,3.0,6.0,-999,-99.99,,,-99.99,,2013-01-19 05:20:00,
2013-01-18 21:23:00,32.0,-99.9,-100.00,SSE,166,2.0,2.0,-999,-99.99,,,-99.99,,2013-01-19 05:23:00,
2013-01-18 21:33:00,33.0,-99.9,-100.00,ESE,106,2.0,4.0,-999,-99.99,,,-99.99,,2013-01-19 05:33:00,
2013-01-18 21:43:00,33.0,-99.9,-100.00,ESE,106,2.0,4.0,-999,-99.99,,,-99.99,,2013-01-19 05:43:00,
2013-01-18 21:53:00,32.0,-99.9,-100.00,South,188,0.0,5.0,-999,-99.99,,,-99.99,,2013-01-19 05:53:00,
2013-01-18 22:03:00,32.0,-99.9,-100.00,South,182,3.0,6.0,-999,-99.99,,,-99.99,,2013-01-19 06:03:00,
2013-01-18 22:10:00,33.0,-99.9,-100.00,NE,53,2.0,6.0,-999,-99.99,,,-99.99,,2013-01-19 06:10:00,
2013-01-18 22:12:00,32.0,-99.9,-100.00,South,182,3.0,6.0,-999,-99.99,,,-99.99,,2013-01-19 06:12:00,
2013-01-18 22:33:00,33.0,-99.9,-100.00,ENE,67,7.0,7.0,-999,-99.99,,,-99.99,,2013-01-19 06:33:00,
2013-01-18 22:43:00,33.0,-99.9,-100.00,ENE,67,7.0,7.0,-999,-99.99,,,-99.99,,2013-01-19 06:43:00,
2013-01-18 22:53:00,33.0,-99.9,-100.00,NE,53,2.0,6.0,-999,-99.99,,,-99.99,,2013-01-19 06:53:00,
2013-01-18 23:00:00,32.0,-99.9,-100.00,East,97,2.0,4.0,-999,-99.99,,,-99.99,,2013-01-19 07:00:00,
2013-01-18 23:02:00,33.0,-99.9,-100.00,NE,53,2.0,6.0,-999,-99.99,,,-99.99,,2013-01-19 07:02:00,
2013-01-18 23:33:00,32.0,-99.9,-100.00,NE,53,2.0,6.0,-999,-99.99,,,-99.99,,2013-01-19 07:33:00,
2013-01-18 23:43:00,32.0,-99.9,-100.00,NE,53,2.0,6.0,-999,-99.99,,,-99.99,,2013-01-19 07:43:00,
2013-01-18 23:53:00,32.0,-99.9,-100.00,East,97,2.0,4.0,-999,-99.99,,,-99.99,,2013-01-19 07:53:00,